createdAt,value
2022-11-15T00:01:25.744Z,8.70
2022-11-15T00:06:29.371Z,8.60
2022-11-15T00:11:33.115Z,8.50
2022-11-15T00:16:37.910Z,8.50
2022-11-15T00:21:41.303Z,8.50
2022-11-15T00:26:44.889Z,8.40
2022-11-15T00:31:49.623Z,8.40
2022-11-15T00:36:53.042Z,8.40
2022-11-15T00:41:56.704Z,8.30
2022-11-15T00:47:01.464Z,8.30
2022-11-15T00:52:05.133Z,8.20
2022-11-15T00:57:08.503Z,8.20
2022-11-15T01:02:13.207Z,8.20
2022-11-15T01:07:16.794Z,8.20
2022-11-15T01:12:20.245Z,8.10
2022-11-15T01:17:25.126Z,8.10
2022-11-15T01:22:28.548Z,8.10
2022-11-15T01:27:31.992Z,8.10
2022-11-15T01:32:36.705Z,8.00
2022-11-15T01:37:40.100Z,8.00
2022-11-15T01:42:44.070Z,8.00
2022-11-15T01:47:53.734Z,8.00
2022-11-15T01:52:57.461Z,7.90
2022-11-15T01:58:05.907Z,7.90
2022-11-15T02:03:10.673Z,7.80
2022-11-15T02:08:21.028Z,7.80
2022-11-15T02:13:25.111Z,7.80
2022-11-15T02:18:38.875Z,7.70
2022-11-15T02:24:24.515Z,7.70
2022-11-15T02:29:41.776Z,7.70
2022-11-15T02:34:53.737Z,7.50
2022-11-15T02:40:05.366Z,7.60
2022-11-15T02:45:11.899Z,7.60
2022-11-15T02:50:20.625Z,7.60
2022-11-15T02:55:29.765Z,7.60
2022-11-15T03:00:37.626Z,7.50
2022-11-15T03:05:48.947Z,7.40
2022-11-15T03:11:03.738Z,7.40
2022-11-15T03:16:11.174Z,7.40
2022-11-15T03:21:16.728Z,7.30
2022-11-15T03:26:23.330Z,7.30
2022-11-15T03:31:51.352Z,7.30
2022-11-15T03:36:56.956Z,7.30
2022-11-15T03:42:10.389Z,7.30
2022-11-15T03:47:18.532Z,7.30
2022-11-15T03:52:24.638Z,7.20
2022-11-15T03:57:28.247Z,7.20
2022-11-15T04:02:31.656Z,7.20
2022-11-15T04:07:36.459Z,7.20
2022-11-15T04:12:43.648Z,7.20
2022-11-15T04:17:48.824Z,7.10
2022-11-15T04:23:13.807Z,7.10
2022-11-15T04:28:17.410Z,7.00
2022-11-15T04:33:21.026Z,7.00
2022-11-15T04:38:25.733Z,7.00
2022-11-15T04:43:29.418Z,7.00
2022-11-15T04:48:33.026Z,6.90
2022-11-15T04:53:38.056Z,6.90
2022-11-15T04:58:41.450Z,6.70
2022-11-15T05:04:03.668Z,6.60
2022-11-15T05:09:08.518Z,6.60
2022-11-15T05:14:12.114Z,6.70
2022-11-15T05:19:15.750Z,6.60
2022-11-15T05:24:20.497Z,6.50
2022-11-15T05:29:24.343Z,6.50
2022-11-15T05:34:28.404Z,6.50
2022-11-15T05:39:33.537Z,6.50
2022-11-15T05:44:39.222Z,6.60
2022-11-15T05:49:44.250Z,6.50
2022-11-15T05:54:49.428Z,6.50
2022-11-15T05:59:53.757Z,6.50
2022-11-15T06:04:57.102Z,6.50
2022-11-15T06:10:01.806Z,6.50
2022-11-15T06:15:05.820Z,6.60
2022-11-15T06:20:09.969Z,6.60
2022-11-15T06:25:14.859Z,6.60
2022-11-15T06:30:18.381Z,6.60
2022-11-15T06:35:21.744Z,6.60
2022-11-15T06:40:26.723Z,6.60
2022-11-15T06:45:30.114Z,6.60
2022-11-15T06:50:33.630Z,6.70
2022-11-15T06:55:38.632Z,6.70
2022-11-15T07:00:42.319Z,6.70
2022-11-15T07:05:53.407Z,6.70
2022-11-15T07:11:00.846Z,6.70
2022-11-15T07:16:05.171Z,6.70
2022-11-15T07:21:10.571Z,6.80
2022-11-15T07:26:15.280Z,6.80
2022-11-15T07:31:18.790Z,6.80
2022-11-15T07:36:22.281Z,6.80
2022-11-15T07:41:27.284Z,6.80
2022-11-15T07:46:30.785Z,6.90
2022-11-15T07:51:34.251Z,7.00
2022-11-15T07:56:40.125Z,7.00
2022-11-15T08:01:43.796Z,7.10
2022-11-15T08:06:48.127Z,7.20
2022-11-15T08:11:52.888Z,7.20
2022-11-15T08:16:57.457Z,7.30
2022-11-15T08:22:00.810Z,7.40
2022-11-15T08:27:05.665Z,7.40
2022-11-15T08:32:09.396Z,7.50
2022-11-15T08:37:12.774Z,7.50
2022-11-15T08:42:19.973Z,7.60
2022-11-15T08:47:23.734Z,7.70
2022-11-15T08:52:27.106Z,7.80
2022-11-15T08:57:32.453Z,7.90
2022-11-15T09:02:35.951Z,8.00
2022-11-15T09:07:39.606Z,8.10
2022-11-15T09:12:44.844Z,8.20
2022-11-15T09:17:48.439Z,8.30
2022-11-15T09:22:51.921Z,8.40
2022-11-15T09:27:56.654Z,8.50
2022-11-15T09:33:00.108Z,8.70
2022-11-15T09:38:03.794Z,8.80
2022-11-15T09:43:26.058Z,8.90
2022-11-15T09:48:51.955Z,9.10
2022-11-15T09:59:48.823Z,9.50
2022-11-15T10:10:28.294Z,9.80
2022-11-15T10:15:34.112Z,10.00
2022-11-15T10:20:54.328Z,10.20
2022-11-15T10:26:06.389Z,10.40
2022-11-15T10:31:25.100Z,10.60
2022-11-15T10:36:29.577Z,10.80
2022-11-15T10:41:43.418Z,11.00
2022-11-15T10:50:04.263Z,11.30
2022-11-15T10:55:26.476Z,11.40
2022-11-15T11:00:34.852Z,11.60
2022-11-15T11:05:43.110Z,11.80
2022-11-15T11:11:00.174Z,12.00
2022-11-15T11:16:39.371Z,12.20
2022-11-15T11:21:53.431Z,12.40
2022-11-15T11:27:15.258Z,12.50
2022-11-15T11:32:48.496Z,12.70
2022-11-15T11:38:03.398Z,12.90
2022-11-15T11:43:17.167Z,13.10
2022-11-15T11:48:33.151Z,13.30
2022-11-15T11:53:44.767Z,13.40
2022-11-15T11:58:50.577Z,13.60
2022-11-15T12:03:59.118Z,13.70
2022-11-15T12:09:15.095Z,13.90
2022-11-15T12:14:31.557Z,14.00
2022-11-15T12:19:35.955Z,14.20
2022-11-15T12:24:45.357Z,14.30
2022-11-15T12:29:53.402Z,14.50
2022-11-15T12:34:57.733Z,14.70
2022-11-15T12:40:24.860Z,14.80
2022-11-15T12:45:33.032Z,14.90
2022-11-15T12:50:55.328Z,15.10
2022-11-15T12:56:26.908Z,15.30
2022-11-15T13:02:01.333Z,15.40
2022-11-15T13:07:06.848Z,15.50
2022-11-15T13:12:14.529Z,15.60
2022-11-15T13:17:37.076Z,15.70
2022-11-15T13:22:55.620Z,15.80
2022-11-15T13:28:05.101Z,15.90
2022-11-15T13:33:18.107Z,15.90
2022-11-15T13:38:29.256Z,16.00
2022-11-15T13:43:37.610Z,15.90
2022-11-15T13:48:43.579Z,15.90
2022-11-15T13:53:51.309Z,15.90
2022-11-15T13:58:55.895Z,15.80
2022-11-15T14:04:03.000Z,15.80
2022-11-15T14:09:42.228Z,15.80
2022-11-15T14:14:47.928Z,15.70
2022-11-15T14:19:53.337Z,15.60
2022-11-15T14:25:16.078Z,15.50
2022-11-15T14:30:20.062Z,15.40
2022-11-15T14:35:25.563Z,15.40
2022-11-15T14:40:29.319Z,15.30
2022-11-15T14:45:32.976Z,15.20
2022-11-15T14:50:38.065Z,15.10
2022-11-15T14:55:41.570Z,15.10
2022-11-15T15:00:44.945Z,15.00
2022-11-15T15:05:49.693Z,14.90
2022-11-15T15:10:53.049Z,14.80
2022-11-15T15:15:56.671Z,14.70
2022-11-15T15:21:07.854Z,14.60
2022-11-15T15:26:11.771Z,14.40
2022-11-15T15:31:15.144Z,14.30
2022-11-15T15:36:20.904Z,14.20
2022-11-15T15:41:25.482Z,14.10
2022-11-15T15:46:28.973Z,14.00
2022-11-15T15:51:33.686Z,13.90
2022-11-15T15:56:37.119Z,13.80
2022-11-15T16:01:40.698Z,13.70
2022-11-15T16:06:46.462Z,13.60
2022-11-15T16:11:49.896Z,13.50
2022-11-15T16:16:53.236Z,13.50
2022-11-15T16:21:58.014Z,13.30
2022-11-15T16:27:01.493Z,13.20
2022-11-15T16:32:05.160Z,13.20
2022-11-15T16:37:22.145Z,13.10
2022-11-15T16:42:25.551Z,13.00
2022-11-15T16:47:28.924Z,12.90
2022-11-15T16:52:34.009Z,12.90
2022-11-15T16:57:37.534Z,12.80
2022-11-15T17:02:41.163Z,12.70
2022-11-15T17:07:50.526Z,12.70
2022-11-15T17:12:57.386Z,12.60
2022-11-15T17:18:01.311Z,12.60
2022-11-15T17:23:12.183Z,12.50
2022-11-15T17:28:15.720Z,12.30
2022-11-15T17:33:19.467Z,12.30
2022-11-15T17:38:24.287Z,12.20
2022-11-15T17:43:28.036Z,12.10
2022-11-15T17:48:32.071Z,12.10
2022-11-15T17:53:38.851Z,12.00
2022-11-15T17:58:43.793Z,11.90
2022-11-15T18:03:47.999Z,11.90
2022-11-15T18:08:55.947Z,11.80
2022-11-15T18:14:01.803Z,11.70
2022-11-15T18:19:08.985Z,11.60
2022-11-15T18:24:13.804Z,11.50
2022-11-15T18:29:17.568Z,11.40
2022-11-15T18:34:21.295Z,11.40
2022-11-15T18:39:26.086Z,11.30
2022-11-15T18:44:30.160Z,11.30
2022-11-15T18:49:33.580Z,11.20
2022-11-15T18:54:38.580Z,11.00
2022-11-15T18:59:42.024Z,10.90
2022-11-15T19:04:45.473Z,10.90
2022-11-15T19:09:50.215Z,10.80
2022-11-15T19:14:54.503Z,10.50
2022-11-15T19:19:57.957Z,10.20
2022-11-15T19:25:05.184Z,10.10
2022-11-15T19:30:10.446Z,10.10
2022-11-15T19:35:13.894Z,10.10
2022-11-15T19:40:19.769Z,10.20
2022-11-15T19:45:23.347Z,10.20
2022-11-15T19:50:26.886Z,10.20
2022-11-15T19:55:32.694Z,10.30
2022-11-15T20:00:37.711Z,10.30
2022-11-15T20:05:41.462Z,10.30
2022-11-15T20:10:48.054Z,10.30
2022-11-15T20:15:51.937Z,10.40
2022-11-15T20:20:59.136Z,10.40
2022-11-15T20:26:03.956Z,10.40
2022-11-15T20:31:08.797Z,10.40
2022-11-15T20:36:14.437Z,10.40
2022-11-15T20:41:19.651Z,10.40
2022-11-15T20:46:23.194Z,10.40
2022-11-15T20:51:26.601Z,10.50
2022-11-15T20:56:31.438Z,10.50
2022-11-15T21:01:34.960Z,10.50
2022-11-15T21:06:42.422Z,10.50
2022-11-15T21:12:07.079Z,10.50
2022-11-15T21:17:11.037Z,10.50
2022-11-15T21:22:15.569Z,10.60
2022-11-15T21:27:21.328Z,10.60
2022-11-15T21:32:24.848Z,10.60
2022-11-15T21:37:28.565Z,10.60
2022-11-15T21:42:33.348Z,10.70
2022-11-15T21:47:36.756Z,10.50
2022-11-15T21:52:40.789Z,10.60
2022-11-15T21:57:45.673Z,10.50
2022-11-15T22:02:49.045Z,10.60
2022-11-15T22:07:52.798Z,10.50
2022-11-15T22:12:58.129Z,10.60
2022-11-15T22:18:02.054Z,10.60
2022-11-15T22:23:06.533Z,10.50
2022-11-15T22:28:11.836Z,10.50
2022-11-15T22:33:15.908Z,10.50
2022-11-15T22:38:20.626Z,10.40
2022-11-15T22:43:27.275Z,10.50
2022-11-15T22:48:33.826Z,10.50
2022-11-15T22:53:38.001Z,10.50
2022-11-15T22:58:43.551Z,10.50
2022-11-15T23:03:47.543Z,10.50
2022-11-15T23:08:51.450Z,10.50
2022-11-15T23:13:57.191Z,10.50
2022-11-15T23:19:02.364Z,10.50
2022-11-15T23:24:07.111Z,10.50
2022-11-15T23:29:14.029Z,10.40
2022-11-15T23:34:22.267Z,10.40
2022-11-15T23:39:26.973Z,10.30
2022-11-15T23:44:32.395Z,10.40
2022-11-15T23:49:36.287Z,10.30
2022-11-15T23:54:40.436Z,10.10
2022-11-15T23:59:46.087Z,10.00
